Flight Track Log - Related Links

Times and Time Zones

All times are in EST time to prevent confusion due to time zone crossing. See the N589H flight status page for this flight to view local times or setup timezone preferences in your user account.

Time Position Orientation Groundspeed Altitude Reporting Facility
EST Latitude Longitude Course Direction KTS MPH feet Rate Location/Type
Sun 06:36:52 PM 35.1811 -80.8853 106° East 192 221 3,100  Level Atlanta Center
Sun 06:37:47 PM 35.1692 -80.8222 103° East 223 257 4,500 893 Climbing Atlanta Center
Sun 06:38:53 PM 35.1378 -80.7394 115° Southeast 266 306 4,900 261 Climbing Atlanta Center
Sun 06:39:42 PM 35.0847 -80.7036 151° Southeast 267 307 5,000 393 Climbing Atlanta Center
Sun 06:40:55 PM 35.0014 -80.7144 186° South 250 288 5,700 903 Climbing Atlanta Center
Sun 06:42:48 PM 34.8844 -80.7592 197° South 266 306 7,800 1,457 Climbing Jacksonville Center
Sun 06:43:48 PM 34.8306 -80.7833 200° South 249 287 9,900 2,050 Climbing Jacksonville Center
Sun 06:44:48 PM 34.7808 -80.8047 199° South 218 251 11,900 1,650 Climbing Jacksonville Center
Sun 06:45:48 PM 34.7269 -80.8314 202° Southwest 206 237 13,200 1,412 Climbing Jacksonville Center
Sun 06:46:47 PM 34.6711 -80.8503 196° South 206 237 14,700 1,311 Climbing Jacksonville Center
Sun 06:47:47 PM 34.6111 -80.8794 202° Southwest 219 252 15,800 1,150 Climbing Jacksonville Center
Sun 06:48:47 PM 34.5467 -80.9011 195° South 230 265 17,000 1,150 Climbing Jacksonville Center
Sun 06:49:47 PM 34.4825 -80.9328 202° Southwest 240 276 18,100 1,050 Climbing Jacksonville Center
Sun 06:50:47 PM 34.4183 -80.9619 201° Southwest 245 282 19,100 950 Climbing Jacksonville Center
Sun 06:51:47 PM 34.3519 -80.9886 198° South 245 282 20,000 900 Climbing Jacksonville Center
Sun 06:52:47 PM 34.2856 -81.0178 200° South 250 288 20,900 850 Climbing Jacksonville Center
Sun 06:53:47 PM 34.2214 -81.0442 199° South 250 288 21,700 893 Climbing Jacksonville Center
Sun 06:54:48 PM 34.1531 -81.0758 201° Southwest 250 288 22,700 950 Climbing Jacksonville Center
Sun 06:55:47 PM 34.0825 -81.1047 199° South 263 303 23,600 908 Climbing Jacksonville Center
Sun 06:56:47 PM 34.0139 -81.1339 199° South 263 303 24,500 1,050 Climbing Jacksonville Center
Sun 06:57:47 PM 33.9436 -81.1628 199° South 268 308 25,700 1,050 Climbing Jacksonville Center
Sun 06:58:47 PM 33.8708 -81.1942 200° South 268 308 26,600 950 Climbing Jacksonville Center
Sun 06:59:47 PM 33.8003 -81.2231 199° South 273 314 27,600 850 Climbing Jacksonville Center
Sun 07:00:47 PM 33.7172 -81.2569 199° South 273 314 28,300 600 Climbing Jacksonville Center
Sun 07:01:47 PM 33.6425 -81.2883 199° South 278 320 28,800 500 Climbing Jacksonville Center
Sun 07:02:47 PM 33.5658 -81.3197 199° South 288 331 29,300 550 Climbing Jacksonville Center
Sun 07:03:47 PM 33.4889 -81.3533 200° South 293 337 29,900 500 Climbing Jacksonville Center
Sun 07:04:47 PM 33.4183 -81.3819 199° South 293 337 30,300 500 Climbing Jacksonville Center
Sun 07:05:47 PM 33.3414 -81.4131 199° South 293 337 30,900 550 Climbing Jacksonville Center
Sun 07:06:47 PM 33.2625 -81.4467 200° South 293 337 31,400 550 Climbing Jacksonville Center
Sun 07:07:47 PM 33.1753 -81.4806 198° South 298 343 32,000 300 Climbing Jacksonville Center
Sun 07:08:47 PM 33.0983 -81.5139 200° South 298 343 32,000  Level Jacksonville Center
Sun 07:09:47 PM 33.0175 -81.5475 199° South 309 356 32,000  Level Jacksonville Center
Sun 07:10:47 PM 32.9342 -81.5808 199° South 309 356 32,000  Level Jacksonville Center
Sun 07:11:47 PM 32.8489 -81.6142 198° South 314 361 32,000  Level Jacksonville Center
Sun 07:12:47 PM 32.7594 -81.6328 190° South 319 367 32,000  Level Jacksonville Center
Sun 07:13:47 PM 32.6742 -81.6536 192° South 324 373 32,000  Level Jacksonville Center
Sun 07:14:47 PM 32.5928 -81.6744 192° South 324 373 32,000  Level Jacksonville Center
Sun 07:15:47 PM 32.4928 -81.6956 190° South 329 379 32,000  Level Jacksonville Center
Sun 07:16:47 PM 32.4117 -81.7164 192° South 337 388 32,000  Level Jacksonville Center
Sun 07:17:47 PM 32.3136 -81.7372 190° South 337 388 32,000  Level Jacksonville Center
Sun 07:18:47 PM 32.2219 -81.7581 191° South 340 391 32,000  Level Jacksonville Center
Sun 07:19:47 PM 32.1408 -81.7786 192° South 335 386 32,000  Level Jacksonville Center
Sun 07:20:47 PM 32.0408 -81.8044 192° South 335 386 32,000  Level Jacksonville Center
Sun 07:21:47 PM 31.9594 -81.8225 191° South 335 386 32,000  Level Jacksonville Center
Sun 07:22:47 PM 31.8553 -81.8458 191° South 335 386 32,000  Level Jacksonville Center
Sun 07:23:47 PM 31.7656 -81.8639 190° South 335 386 32,000  Level Jacksonville Center
Sun 07:24:47 PM 31.6844 -81.8867 193° South 335 386 32,000  Level Jacksonville Center
Sun 07:25:47 PM 31.5844 -81.9097 191° South 335 386 32,000  Level Jacksonville Center
Sun 07:26:47 PM 31.5011 -81.9278 190° South 335 386 32,000  Level Jacksonville Center
Sun 07:27:47 PM 31.4031 -81.9506 191° South 335 386 32,000  Level Jacksonville Center
Sun 07:28:47 PM 31.3175 -81.9758 194° South 347 399 32,000 -50 Level Jacksonville Center
Sun 07:29:47 PM 31.2364 -82.0228 206° Southwest 341 392 31,900 -550 Descending Jacksonville Center
Sun 07:30:47 PM 31.1533 -82.0697 206° Southwest 336 387 30,900 -1,000 Descending Jacksonville Center
Sun 07:31:47 PM 31.0700 -82.1164 206° Southwest 336 387 29,900 -1,000 Descending Jacksonville Center
Sun 07:32:47 PM 30.9828 -82.1583 202° Southwest 336 387 28,900 -1,000 Descending Jacksonville Center
Sun 07:33:47 PM 30.8889 -82.1711 187° South 336 387 27,900 -1,000 Descending Jacksonville Center
Sun 07:34:47 PM 30.7906 -82.1817 185° South 348 400 26,900 -1,000 Descending Jacksonville Center
Sun 07:35:47 PM 30.6969 -82.1967 188° South 348 400 25,900 -1,000 Descending Jacksonville Center
Sun 07:36:47 PM 30.6050 -82.2094 187° South 348 400 24,900 -1,000 Descending Jacksonville Center
Sun 07:37:47 PM 30.5111 -82.2197 185° South 348 400 23,900 -1,000 Descending Jacksonville Center
Sun 07:38:47 PM 30.4194 -82.2350 188° South 348 400 22,900 -992 Descending Jacksonville Center
Sun 07:39:48 PM 30.3275 -82.2475 187° South 348 400 21,900 -700 Descending Jacksonville Center
Sun 07:40:47 PM 30.2378 -82.2650 190° South 342 394 21,500 -450 Descending Jacksonville Center
Sun 07:41:48 PM 30.1503 -82.2800 188° South 331 381 21,000 -248 Descending Jacksonville Center
Sun 07:42:48 PM 30.0522 -82.2997 190° South 331 381 21,000  Level Jacksonville Center
Sun 07:43:47 PM 29.9644 -82.3172 190° South 331 381 21,000  Level Jacksonville Center
Sun 07:44:47 PM 29.8769 -82.3344 190° South 331 381 21,000 -300 Level Jacksonville Center
Sun 07:45:47 PM 29.7872 -82.3469 187° South 331 381 20,400 -800 Descending Jacksonville Center
Sun 07:46:47 PM 29.6956 -82.3642 189° South 331 381 19,400 -1,000 Descending Jacksonville Center
Sun 07:47:47 PM 29.6078 -82.3814 190° South 331 381 18,400 -4,200 Descending Jacksonville Center
Sun 07:48:47 PM 29.5222 -82.3961 189° South 321 369 11,000 -950 Descending Jacksonville Center
Sun 07:49:47 PM 29.4408 -82.4108 189° South 311 358 16,500 2,250 Climbing Jacksonville Center
Sun 07:50:47 PM 29.3597 -82.4256 189° South 311 358 15,500 -1,000 Descending Jacksonville Center
Sun 07:51:47 PM 29.2761 -82.4403 189° South 306 352 14,500 -1,000 Descending Jacksonville Center
Sun 07:52:47 PM 29.1969 -82.4550 189° South 301 346 13,500 -1,006 Descending Jacksonville Center
Sun 07:54:34 PM 29.0667 -82.4833 191° South 282 325 11,700 -811 Descending Tampa TRACON
Sun 07:55:52 PM 28.9667 -82.5000 188° South 277 319 11,000 -350 Descending Tampa TRACON
Sun 07:56:34 PM 28.9167 -82.5000 180° South 276 318 11,000  Level Tampa TRACON
Sun 07:57:34 PM 28.8500 -82.5167 192° South 278 320 11,000 -50 Level Tampa TRACON
Sun 07:58:34 PM 28.7667 -82.5333 190° South 279 321 10,900 -48 Descending Tampa TRACON
Sun 07:59:40 PM 28.6667 -82.5667 196° South 285 328 10,900 -50 Level Tampa TRACON
Sun 08:00:34 PM 28.6167 -82.5667 180° South 271 312 10,800 -737 Descending Tampa TRACON
Sun 08:01:34 PM 28.5500 -82.5833 192° South 248 285 9,500 -1,227 Descending Tampa TRACON
Sun 08:02:46 PM 28.4667 -82.6000 190° South 244 281 8,100 -1,190 Descending Tampa TRACON
Sun 08:03:35 PM 28.4000 -82.6167 192° South 249 287 7,100 -1,041 Descending Tampa TRACON
Sun 08:04:47 PM 28.3167 -82.6333 190° South 244 281 6,000 -950 Descending Tampa TRACON
Sun 08:05:35 PM 28.2667 -82.6500 196° South 251 289 5,200 -667 Descending Tampa TRACON
Sun 08:06:53 PM 28.1833 -82.6667 190° South 244 281 4,600 -792 Descending Tampa TRACON
Sun 08:07:59 PM 28.1000 -82.7000 199° South 257 296 3,300 -1,263 Descending Tampa TRACON
Sun 08:08:47 PM 28.0667 -82.7167 204° Southwest 225 259 2,200 -944 Descending Tampa TRACON
Sun 08:09:47 PM 28.0000 -82.7000 168° South 177 204 1,600 -619 Descending Tampa TRACON
Sun 08:10:53 PM 27.9667 -82.7000 180° South 145 167 900 -571 Descending Tampa TRACON
Sun 08:11:53 PM 27.9333 -82.6833 156° South 132 152 400 -500 Descending Tampa TRACON
Sun 08:13:00 PM 27.9100 -82.6875 190° South  Level Estimated
Sun 08:20:00 PM 27.9100 -82.6875 190° South  Level Estimated

Login

Don't have an account? Register now (free) for customized features, flight alerts, and more!